createdAt,value
2023-03-27T00:01:42.404Z,1.10
2023-03-27T00:04:08.841Z,1.10
2023-03-27T00:06:35.258Z,1.17
2023-03-27T00:09:01.849Z,0.90
2023-03-27T00:11:28.257Z,0.95
2023-03-27T00:13:54.877Z,0.82
2023-03-27T00:16:24.068Z,0.70
2023-03-27T00:18:50.555Z,0.80
2023-03-27T00:21:17.050Z,0.98
2023-03-27T00:23:44.546Z,0.70
2023-03-27T00:26:10.967Z,0.85
2023-03-27T00:28:38.310Z,0.90
2023-03-27T00:31:10.734Z,0.90
2023-03-27T00:33:37.228Z,0.70
2023-03-27T00:36:03.885Z,0.70
2023-03-27T00:38:30.344Z,1.02
2023-03-27T00:40:56.907Z,1.05
2023-03-27T00:43:34.414Z,1.10
2023-03-27T00:46:25.504Z,1.02
2023-03-27T00:48:52.820Z,0.95
2023-03-27T00:51:24.516Z,0.90
2023-03-27T00:53:51.677Z,0.93
2023-03-27T00:56:18.451Z,0.85
2023-03-27T00:58:55.674Z,1.00
2023-03-27T01:01:24.887Z,1.30
2023-03-27T01:03:52.767Z,1.23
2023-03-27T01:06:20.998Z,0.88
2023-03-27T01:08:47.603Z,1.05
2023-03-27T01:11:26.575Z,0.93
2023-03-27T01:14:16.736Z,0.88
2023-03-27T01:16:59.427Z,0.80
2023-03-27T01:19:26.705Z,0.80
2023-03-27T01:21:58.778Z,0.68
2023-03-27T01:24:31.223Z,1.15
2023-03-27T01:27:03.040Z,0.68
2023-03-27T01:29:38.563Z,0.80
2023-03-27T01:32:23.746Z,1.00
2023-03-27T01:35:03.477Z,0.95
2023-03-27T01:37:49.890Z,0.75
2023-03-27T01:41:03.331Z,0.70
2023-03-27T01:43:39.444Z,0.90
2023-03-27T01:46:31.140Z,1.05
2023-03-27T01:49:04.752Z,0.75
2023-03-27T01:51:52.290Z,0.90
2023-03-27T01:54:30.902Z,0.95
2023-03-27T01:57:07.790Z,0.77
2023-03-27T01:59:41.602Z,0.98
2023-03-27T02:02:19.641Z,0.80
2023-03-27T02:04:54.634Z,0.90
2023-03-27T02:07:45.255Z,0.70
2023-03-27T02:10:16.761Z,0.80
2023-03-27T02:12:52.636Z,0.63
2023-03-27T02:15:23.769Z,0.93
2023-03-27T02:18:01.384Z,0.70
2023-03-27T02:20:27.834Z,1.10
2023-03-27T02:22:54.200Z,0.70
2023-03-27T02:25:26.719Z,0.75
2023-03-27T02:28:23.917Z,0.90
2023-03-27T02:31:32.600Z,0.68
2023-03-27T02:34:26.063Z,0.80
2023-03-27T02:37:05.066Z,0.80
2023-03-27T02:40:00.185Z,0.80
2023-03-27T02:42:58.810Z,1.00
2023-03-27T02:45:34.421Z,0.85
2023-03-27T02:48:14.759Z,0.80
2023-03-27T02:50:46.790Z,0.80
2023-03-27T02:53:18.820Z,1.00
2023-03-27T02:55:52.005Z,0.90
2023-03-27T02:58:24.759Z,0.50
2023-03-27T03:00:51.881Z,0.77
2023-03-27T03:03:44.297Z,0.75
2023-03-27T03:06:10.778Z,1.05
2023-03-27T03:08:38.906Z,0.98
2023-03-27T03:11:09.803Z,0.82
2023-03-27T03:13:42.183Z,0.88
2023-03-27T03:16:10.081Z,1.30
2023-03-27T03:18:36.555Z,0.80
2023-03-27T03:21:05.121Z,0.80
2023-03-27T03:23:34.552Z,0.63
2023-03-27T03:26:01.896Z,0.80
2023-03-27T03:28:28.550Z,1.00
2023-03-27T03:30:55.329Z,0.70
2023-03-27T03:33:22.050Z,0.82
2023-03-27T03:35:50.059Z,1.00
2023-03-27T03:38:17.479Z,0.75
2023-03-27T03:40:43.925Z,0.60
2023-03-27T03:43:10.317Z,0.90
2023-03-27T03:45:36.624Z,0.80
2023-03-27T03:48:03.161Z,0.95
2023-03-27T03:50:29.635Z,1.08
2023-03-27T03:52:56.008Z,0.93
2023-03-27T03:55:22.369Z,0.90
2023-03-27T03:57:48.657Z,1.10
2023-03-27T04:00:15.367Z,1.15
2023-03-27T04:02:41.850Z,0.90
2023-03-27T04:05:09.165Z,1.00
2023-03-27T04:07:36.002Z,0.80
2023-03-27T04:10:03.723Z,1.13
2023-03-27T04:12:30.127Z,1.48
2023-03-27T04:14:56.624Z,1.02
2023-03-27T04:17:23.546Z,0.77
2023-03-27T04:19:49.922Z,1.05
2023-03-27T04:22:16.320Z,1.10
2023-03-27T04:24:43.767Z,1.00
2023-03-27T04:27:11.595Z,0.90
2023-03-27T04:29:38.223Z,1.15
2023-03-27T04:32:04.622Z,1.00
2023-03-27T04:34:30.990Z,0.82
2023-03-27T04:36:57.355Z,0.80
2023-03-27T04:39:23.679Z,0.70
2023-03-27T04:41:50.183Z,1.10
2023-03-27T04:44:17.144Z,1.95
2023-03-27T04:46:47.578Z,0.70
2023-03-27T04:49:14.607Z,1.15
2023-03-27T04:51:40.964Z,0.77
2023-03-27T04:54:08.043Z,0.88
2023-03-27T04:56:34.449Z,0.80
2023-03-27T04:59:01.413Z,0.90
2023-03-27T05:01:27.856Z,1.10
2023-03-27T05:03:54.454Z,0.93
2023-03-27T05:06:22.797Z,0.93
2023-03-27T05:08:50.153Z,1.25
2023-03-27T05:11:16.520Z,0.80
2023-03-27T05:13:42.891Z,0.98
2023-03-27T05:16:09.491Z,0.80
2023-03-27T05:18:36.339Z,0.80
2023-03-27T05:21:02.816Z,1.00
2023-03-27T05:23:29.276Z,0.90
2023-03-27T05:25:59.764Z,0.90
2023-03-27T05:28:27.469Z,0.80
2023-03-27T05:30:53.903Z,0.80
2023-03-27T05:33:20.618Z,0.98
2023-03-27T05:35:49.755Z,0.98
2023-03-27T05:38:16.226Z,0.70
2023-03-27T05:40:42.711Z,1.20
2023-03-27T05:43:09.083Z,1.25
2023-03-27T05:45:35.527Z,1.20
2023-03-27T05:48:02.808Z,1.00
2023-03-27T05:50:32.702Z,0.93
2023-03-27T05:53:06.475Z,1.00
2023-03-27T05:55:32.893Z,1.05
2023-03-27T05:57:59.667Z,0.88
2023-03-27T06:00:26.890Z,0.77
2023-03-27T06:02:55.191Z,1.27
2023-03-27T06:05:21.759Z,1.23
2023-03-27T06:07:49.220Z,0.80
2023-03-27T06:10:17.154Z,1.08
2023-03-27T06:12:46.426Z,1.00
2023-03-27T06:15:14.950Z,1.00
2023-03-27T06:17:43.089Z,1.30
2023-03-27T06:20:11.521Z,1.15
2023-03-27T06:22:49.756Z,1.20
2023-03-27T06:25:17.443Z,1.05
2023-03-27T06:27:46.423Z,0.80
2023-03-27T06:30:15.039Z,1.00
2023-03-27T06:32:46.290Z,1.10
2023-03-27T06:35:13.459Z,1.33
2023-03-27T06:37:42.122Z,1.30
2023-03-27T06:40:09.882Z,1.20
2023-03-27T06:42:37.294Z,1.17
2023-03-27T06:45:08.106Z,1.38
2023-03-27T06:47:38.732Z,1.27
2023-03-27T06:50:11.990Z,1.42
2023-03-27T06:52:38.374Z,1.45
2023-03-27T06:55:05.150Z,1.00
2023-03-27T06:57:31.620Z,1.20
2023-03-27T06:59:59.673Z,0.90
2023-03-27T07:02:28.128Z,1.13
2023-03-27T07:05:04.208Z,0.90
2023-03-27T07:07:31.887Z,1.00
2023-03-27T07:10:00.838Z,1.08
2023-03-27T07:12:27.343Z,0.85
2023-03-27T07:14:53.715Z,1.00
2023-03-27T07:17:21.200Z,0.88
2023-03-27T07:19:47.811Z,0.90
2023-03-27T07:22:15.271Z,0.80
2023-03-27T07:24:41.639Z,0.70
2023-03-27T07:27:08.101Z,0.85
2023-03-27T07:29:35.749Z,1.08
2023-03-27T07:32:07.929Z,1.00
2023-03-27T07:34:35.597Z,0.70
2023-03-27T07:37:02.004Z,0.80
2023-03-27T07:39:28.438Z,0.70
2023-03-27T07:41:55.146Z,0.65
2023-03-27T07:44:21.546Z,1.25
2023-03-27T07:46:48.011Z,0.70
2023-03-27T07:49:14.400Z,0.80
2023-03-27T07:51:40.809Z,0.70
2023-03-27T07:54:07.090Z,0.50
2023-03-27T07:56:33.968Z,1.20
2023-03-27T07:59:00.594Z,0.73
2023-03-27T08:01:27.425Z,0.80
2023-03-27T08:03:53.978Z,1.08
2023-03-27T08:06:20.562Z,1.10
2023-03-27T08:08:47.033Z,1.15
2023-03-27T08:11:23.201Z,1.20
2023-03-27T08:13:54.238Z,0.80
2023-03-27T08:16:20.681Z,1.00
2023-03-27T08:18:47.167Z,0.82
2023-03-27T08:21:13.635Z,0.80
2023-03-27T08:23:40.121Z,0.95
2023-03-27T08:26:06.833Z,0.80
2023-03-27T08:28:35.339Z,0.90
2023-03-27T08:31:07.602Z,0.82
2023-03-27T08:33:34.011Z,1.23
2023-03-27T08:36:00.467Z,0.73
2023-03-27T08:38:27.310Z,0.75
2023-03-27T08:40:56.177Z,0.73
2023-03-27T08:43:26.462Z,0.88
2023-03-27T08:46:11.304Z,1.23
2023-03-27T08:48:50.191Z,1.00
2023-03-27T08:51:32.093Z,1.23
2023-03-27T08:54:07.689Z,1.08
2023-03-27T08:56:34.374Z,1.00
2023-03-27T08:59:01.514Z,0.80
2023-03-27T09:01:52.154Z,0.82
2023-03-27T09:04:44.232Z,1.00
2023-03-27T09:07:18.148Z,1.00
2023-03-27T09:09:54.707Z,0.77
2023-03-27T09:12:39.060Z,0.70
2023-03-27T09:15:15.730Z,0.80
2023-03-27T09:17:48.026Z,0.80
2023-03-27T09:20:20.211Z,0.70
2023-03-27T09:22:56.804Z,0.82
2023-03-27T09:25:28.924Z,0.90
2023-03-27T09:27:55.787Z,0.77
2023-03-27T09:30:26.461Z,0.80
2023-03-27T09:33:01.699Z,0.70
2023-03-27T09:35:28.260Z,1.00
2023-03-27T09:38:04.136Z,0.90
2023-03-27T09:40:41.944Z,1.10
2023-03-27T09:43:24.760Z,0.80
2023-03-27T09:46:28.439Z,0.85
2023-03-27T09:49:16.443Z,0.95
2023-03-27T09:51:46.837Z,0.80
2023-03-27T09:54:18.746Z,0.93
2023-03-27T09:56:55.925Z,0.82
2023-03-27T09:59:33.465Z,1.00
2023-03-27T10:02:08.844Z,1.15
2023-03-27T10:04:35.446Z,0.85
2023-03-27T10:07:03.618Z,0.98
2023-03-27T10:09:32.839Z,1.10
2023-03-27T10:12:02.774Z,1.17
2023-03-27T10:14:30.771Z,1.17
2023-03-27T10:16:57.249Z,0.90
2023-03-27T10:19:32.173Z,1.00
2023-03-27T10:22:22.731Z,1.10
2023-03-27T10:24:49.113Z,0.90
2023-03-27T10:27:25.800Z,0.98
2023-03-27T10:29:52.204Z,0.80
2023-03-27T10:32:18.656Z,0.80
2023-03-27T10:34:56.698Z,0.90
2023-03-27T10:37:30.281Z,1.42
2023-03-27T10:40:00.304Z,0.70
2023-03-27T10:42:30.784Z,0.93
2023-03-27T10:44:58.404Z,0.82
2023-03-27T10:47:27.859Z,0.98
2023-03-27T10:50:13.365Z,0.93
2023-03-27T10:52:49.588Z,1.13
2023-03-27T10:55:24.674Z,0.85
2023-03-27T10:57:57.836Z,1.10
2023-03-27T11:00:35.270Z,0.63
2023-03-27T11:03:29.567Z,0.93
2023-03-27T11:05:58.013Z,1.15
2023-03-27T11:08:46.365Z,0.90
2023-03-27T11:11:22.010Z,0.82
2023-03-27T11:13:48.503Z,0.80
2023-03-27T11:16:23.481Z,1.05
2023-03-27T11:19:11.760Z,0.85
2023-03-27T11:21:50.138Z,1.33
2023-03-27T11:24:33.718Z,0.82
2023-03-27T11:27:20.394Z,1.50
2023-03-27T11:30:00.023Z,1.15
2023-03-27T11:32:38.945Z,1.17
2023-03-27T11:35:14.703Z,0.68
2023-03-27T11:37:48.244Z,1.10
2023-03-27T11:40:24.308Z,1.00
2023-03-27T11:42:50.828Z,0.80
2023-03-27T11:45:22.922Z,1.10
2023-03-27T11:48:36.985Z,0.88
2023-03-27T11:51:15.319Z,0.80
2023-03-27T11:53:47.548Z,1.10
2023-03-27T11:56:20.207Z,1.00
2023-03-27T11:59:13.339Z,0.93
2023-03-27T12:01:45.276Z,1.00
2023-03-27T12:04:35.156Z,1.27
2023-03-27T12:07:11.922Z,0.90
2023-03-27T12:10:05.163Z,0.63
2023-03-27T12:12:34.501Z,1.00
2023-03-27T12:15:11.044Z,1.00
2023-03-27T12:17:48.448Z,1.40
2023-03-27T12:20:28.523Z,0.70
2023-03-27T12:23:06.725Z,1.13
2023-03-27T12:25:48.223Z,0.70
2023-03-27T12:28:59.897Z,1.15
2023-03-27T12:31:42.713Z,0.98
2023-03-27T12:34:35.300Z,0.85
2023-03-27T12:37:03.413Z,0.88
2023-03-27T12:39:30.160Z,0.68
2023-03-27T12:41:56.634Z,0.60
2023-03-27T12:44:30.435Z,0.68
2023-03-27T12:47:24.722Z,0.93
2023-03-27T12:50:00.943Z,0.80
2023-03-27T12:52:28.408Z,1.20
2023-03-27T12:55:07.247Z,0.90
2023-03-27T12:57:43.334Z,0.82
2023-03-27T13:00:28.040Z,1.08
2023-03-27T13:03:24.281Z,0.90
2023-03-27T13:06:19.229Z,1.20
2023-03-27T13:09:06.032Z,1.20
2023-03-27T13:11:48.278Z,1.42
2023-03-27T13:14:32.646Z,0.95
2023-03-27T13:17:14.045Z,0.75
2023-03-27T13:19:50.524Z,1.20
2023-03-27T13:22:53.725Z,0.80
2023-03-27T13:25:36.707Z,0.85
2023-03-27T13:28:15.017Z,0.90
2023-03-27T13:30:48.293Z,0.80
2023-03-27T13:33:16.375Z,0.50
2023-03-27T13:35:58.474Z,0.60
2023-03-27T13:38:44.172Z,1.20
2023-03-27T13:41:45.819Z,1.35
2023-03-27T13:44:20.106Z,0.70
2023-03-27T13:46:57.293Z,1.15
2023-03-27T13:49:35.596Z,0.80
2023-03-27T13:52:10.991Z,1.00
2023-03-27T13:54:49.384Z,0.75
2023-03-27T13:57:34.773Z,1.10
2023-03-27T14:00:01.077Z,0.90
2023-03-27T14:02:42.202Z,0.90
2023-03-27T14:05:56.847Z,0.70
2023-03-27T14:08:47.300Z,1.00
2023-03-27T14:11:30.192Z,0.75
2023-03-27T14:14:34.197Z,0.65
2023-03-27T14:17:28.523Z,0.73
2023-03-27T14:20:10.679Z,0.93
2023-03-27T14:22:44.996Z,0.70
2023-03-27T14:25:18.810Z,1.05
2023-03-27T14:27:53.329Z,0.70
2023-03-27T14:30:30.752Z,0.52
2023-03-27T14:33:03.240Z,0.80
2023-03-27T14:35:40.994Z,0.50
2023-03-27T14:38:23.460Z,0.80
2023-03-27T14:40:51.092Z,0.68
2023-03-27T14:43:19.636Z,0.70
2023-03-27T14:45:49.189Z,0.90
2023-03-27T14:48:24.091Z,0.88
2023-03-27T14:50:54.067Z,1.15
2023-03-27T14:53:25.370Z,0.90
2023-03-27T14:55:54.318Z,0.90
2023-03-27T14:58:23.496Z,1.00
2023-03-27T15:00:54.322Z,0.90
2023-03-27T15:03:26.097Z,0.80
2023-03-27T15:05:55.399Z,0.70
2023-03-27T15:08:24.881Z,0.90
2023-03-27T15:10:53.440Z,0.70
2023-03-27T15:13:22.989Z,0.63
2023-03-27T15:15:49.750Z,0.90
2023-03-27T15:18:25.696Z,1.23
2023-03-27T15:20:53.377Z,0.77
2023-03-27T15:23:33.545Z,1.05
2023-03-27T15:26:13.884Z,1.00
2023-03-27T15:28:47.853Z,1.00
2023-03-27T15:31:14.986Z,1.00
2023-03-27T15:34:13.748Z,1.13
2023-03-27T15:36:41.416Z,1.58
2023-03-27T15:39:17.898Z,0.90
2023-03-27T15:41:50.937Z,1.00
2023-03-27T15:44:20.246Z,1.20
2023-03-27T15:46:48.757Z,1.00
2023-03-27T15:49:24.340Z,0.90
2023-03-27T15:51:51.118Z,1.17
2023-03-27T15:54:30.883Z,0.90
2023-03-27T15:57:10.832Z,1.10
2023-03-27T15:59:52.238Z,0.88
2023-03-27T16:02:22.121Z,0.80
2023-03-27T16:04:57.005Z,1.50
2023-03-27T16:07:31.629Z,1.05
2023-03-27T16:10:02.227Z,0.88
2023-03-27T16:12:55.103Z,1.10
2023-03-27T16:15:32.055Z,1.45
2023-03-27T16:18:02.548Z,1.17
2023-03-27T16:20:33.381Z,1.20
2023-03-27T16:22:59.758Z,1.00
2023-03-27T16:25:26.216Z,1.45
2023-03-27T16:27:54.332Z,1.38
2023-03-27T16:30:23.890Z,0.98
2023-03-27T16:32:50.327Z,1.23
2023-03-27T16:35:16.704Z,1.65
2023-03-27T16:37:43.196Z,1.13
2023-03-27T16:40:10.193Z,1.10
2023-03-27T16:42:37.800Z,1.00
2023-03-27T16:45:05.083Z,1.13
2023-03-27T16:47:31.669Z,1.45
2023-03-27T16:50:10.756Z,1.10
2023-03-27T16:52:37.793Z,0.90
2023-03-27T16:55:07.653Z,1.05
2023-03-27T16:57:34.723Z,0.82
2023-03-27T17:00:01.094Z,0.90
2023-03-27T17:02:27.615Z,0.93
2023-03-27T17:04:54.147Z,0.90
2023-03-27T17:07:20.577Z,1.08
2023-03-27T17:09:46.900Z,0.95
2023-03-27T17:12:13.374Z,0.98
2023-03-27T17:14:39.753Z,0.90
2023-03-27T17:17:06.136Z,0.90
2023-03-27T17:19:32.587Z,0.90
2023-03-27T17:21:59.006Z,1.27
2023-03-27T17:24:25.436Z,0.98
2023-03-27T17:26:51.800Z,1.02
2023-03-27T17:29:26.093Z,1.10
2023-03-27T17:31:52.607Z,0.85
2023-03-27T17:34:19.001Z,0.98
2023-03-27T17:36:52.520Z,1.10
2023-03-27T17:39:21.268Z,1.08
2023-03-27T17:41:47.795Z,0.90
2023-03-27T17:44:14.294Z,1.10
2023-03-27T17:46:40.750Z,1.30
2023-03-27T17:49:07.194Z,1.10
2023-03-27T17:51:33.645Z,1.30
2023-03-27T17:53:59.903Z,1.10
2023-03-27T17:56:26.438Z,1.08
2023-03-27T17:58:53.173Z,1.05
2023-03-27T18:01:21.394Z,0.93
2023-03-27T18:03:48.392Z,0.73
2023-03-27T18:06:16.308Z,1.65
2023-03-27T18:08:43.237Z,1.00
2023-03-27T18:11:12.625Z,1.35
2023-03-27T18:13:39.513Z,1.23
2023-03-27T18:16:07.423Z,1.00
2023-03-27T18:18:34.229Z,0.85
2023-03-27T18:21:01.918Z,1.00
2023-03-27T18:23:28.381Z,0.80
2023-03-27T18:25:54.789Z,0.80
2023-03-27T18:28:21.094Z,1.08
2023-03-27T18:30:56.863Z,0.80
2023-03-27T18:33:23.174Z,0.80
2023-03-27T18:35:54.404Z,0.73
2023-03-27T18:38:21.104Z,0.95
2023-03-27T18:40:47.966Z,0.68
2023-03-27T18:43:14.354Z,1.13
2023-03-27T18:45:40.728Z,0.70
2023-03-27T18:48:08.428Z,0.80
2023-03-27T18:50:36.800Z,0.80
2023-03-27T18:53:03.198Z,0.88
2023-03-27T18:55:29.658Z,0.90
2023-03-27T18:57:56.029Z,0.77
2023-03-27T19:00:22.423Z,0.68
2023-03-27T19:02:48.980Z,0.80
2023-03-27T19:05:16.092Z,0.93
2023-03-27T19:07:44.967Z,0.77
2023-03-27T19:10:12.054Z,1.23
2023-03-27T19:12:38.468Z,1.00
2023-03-27T19:15:17.319Z,0.73
2023-03-27T19:17:46.010Z,0.90
2023-03-27T19:20:12.539Z,0.85
2023-03-27T19:22:38.937Z,0.80
2023-03-27T19:25:05.936Z,0.90
2023-03-27T19:27:38.912Z,0.93
2023-03-27T19:30:07.303Z,0.88
2023-03-27T19:32:33.773Z,1.20
2023-03-27T19:35:00.163Z,0.80
2023-03-27T19:37:26.751Z,1.67
2023-03-27T19:39:53.117Z,1.35
2023-03-27T19:42:19.418Z,1.20
2023-03-27T19:44:45.820Z,1.95
2023-03-27T19:47:12.328Z,2.17
2023-03-27T19:49:38.745Z,2.30
2023-03-27T19:52:05.081Z,1.52
2023-03-27T19:54:31.539Z,2.10
2023-03-27T19:56:58.025Z,2.10
2023-03-27T19:59:30.892Z,1.70
2023-03-27T20:01:58.418Z,2.05
2023-03-27T20:04:26.158Z,2.28
2023-03-27T20:06:52.589Z,2.10
2023-03-27T20:09:19.140Z,2.15
2023-03-27T20:11:45.540Z,1.30
2023-03-27T20:14:12.155Z,1.50
2023-03-27T20:16:39.013Z,1.80
2023-03-27T20:19:05.655Z,1.48
2023-03-27T20:21:35.380Z,1.60
2023-03-27T20:24:02.225Z,2.08
2023-03-27T20:26:29.019Z,1.90
2023-03-27T20:28:55.418Z,1.10
2023-03-27T20:31:22.045Z,1.42
2023-03-27T20:33:48.522Z,1.30
2023-03-27T20:36:14.904Z,1.48
2023-03-27T20:38:41.275Z,1.45
2023-03-27T20:41:07.882Z,1.90
2023-03-27T20:43:34.312Z,1.30
2023-03-27T20:46:02.542Z,1.60
2023-03-27T20:48:30.874Z,1.70
2023-03-27T20:50:57.241Z,1.70
2023-03-27T20:53:26.580Z,1.83
2023-03-27T20:56:00.823Z,1.23
2023-03-27T20:58:28.231Z,1.50
2023-03-27T21:00:55.203Z,1.52
2023-03-27T21:03:22.548Z,1.80
2023-03-27T21:05:49.132Z,2.28
2023-03-27T21:08:15.554Z,1.40
2023-03-27T21:10:42.233Z,1.63
2023-03-27T21:13:08.604Z,1.40
2023-03-27T21:15:35.279Z,1.70
2023-03-27T21:18:01.992Z,1.40
2023-03-27T21:20:28.563Z,1.52
2023-03-27T21:22:55.980Z,1.42
2023-03-27T21:25:22.583Z,1.35
2023-03-27T21:27:49.208Z,1.55
2023-03-27T21:30:16.486Z,1.40
2023-03-27T21:32:45.880Z,1.20
2023-03-27T21:35:13.236Z,1.08
2023-03-27T21:37:39.757Z,1.63
2023-03-27T21:40:06.855Z,1.88
2023-03-27T21:42:33.224Z,1.50
2023-03-27T21:44:59.525Z,1.98
2023-03-27T21:47:34.455Z,2.00
2023-03-27T21:50:08.218Z,1.75
2023-03-27T21:52:34.688Z,1.63
2023-03-27T21:55:03.268Z,1.80
2023-03-27T21:57:30.256Z,1.80
2023-03-27T21:59:56.852Z,1.52
2023-03-27T22:02:23.345Z,1.60
2023-03-27T22:04:49.832Z,1.08
2023-03-27T22:07:17.253Z,1.33
2023-03-27T22:09:44.492Z,1.40
2023-03-27T22:12:13.100Z,1.30
2023-03-27T22:14:39.754Z,1.45
2023-03-27T22:17:06.223Z,1.00
2023-03-27T22:19:32.883Z,1.30
2023-03-27T22:21:59.322Z,1.10
2023-03-27T22:24:29.223Z,1.27
2023-03-27T22:26:55.563Z,1.30
2023-03-27T22:29:21.995Z,1.40
2023-03-27T22:31:48.523Z,1.10
2023-03-27T22:34:15.053Z,1.23
2023-03-27T22:36:41.493Z,1.63
2023-03-27T22:39:07.948Z,1.23
2023-03-27T22:41:34.549Z,1.02
2023-03-27T22:44:01.137Z,1.73
2023-03-27T22:46:27.795Z,1.20
2023-03-27T22:48:55.274Z,1.00
2023-03-27T22:51:21.744Z,1.15
2023-03-27T22:53:48.063Z,1.17
2023-03-27T22:56:14.516Z,1.08
2023-03-27T22:58:41.196Z,1.38
2023-03-27T23:01:07.788Z,1.00
2023-03-27T23:03:34.324Z,1.00
2023-03-27T23:06:01.010Z,1.40
2023-03-27T23:08:28.188Z,1.13
2023-03-27T23:10:57.116Z,1.40
2023-03-27T23:13:24.346Z,1.30
2023-03-27T23:15:51.348Z,0.95
2023-03-27T23:18:18.918Z,1.00
2023-03-27T23:20:45.224Z,0.90
2023-03-27T23:23:11.567Z,1.10
2023-03-27T23:25:38.877Z,0.98
2023-03-27T23:28:05.896Z,1.48
2023-03-27T23:30:32.357Z,0.95
2023-03-27T23:32:59.814Z,1.00
2023-03-27T23:35:26.275Z,1.55
2023-03-27T23:37:52.669Z,1.00
2023-03-27T23:40:19.071Z,1.20
2023-03-27T23:42:45.398Z,1.10
2023-03-27T23:45:12.023Z,1.20
2023-03-27T23:47:38.459Z,1.08
2023-03-27T23:50:05.271Z,1.50
2023-03-27T23:52:31.677Z,1.00
2023-03-27T23:54:58.043Z,1.20
2023-03-27T23:57:24.583Z,1.40
2023-03-27T23:59:51.045Z,1.08
